sensor_id;sensor_type;location;lat;lon;timestamp;P1;durP1;ratioP1;P2;durP2;ratioP2
10540;SDS011;5318;50.844;4.272;2023-06-10T09:01:07;7.03;;;7.03;;
10540;SDS011;5318;50.844;4.272;2023-06-10T09:03:34;7.23;;;7.23;;
10540;SDS011;5318;50.844;4.272;2023-06-10T09:06:04;6.57;;;6.57;;
10540;SDS011;5318;50.844;4.272;2023-06-10T09:08:30;7.17;;;7.17;;
10540;SDS011;5318;50.844;4.272;2023-06-10T09:10:57;7.93;;;7.93;;
10540;SDS011;5318;50.844;4.272;2023-06-10T09:13:23;7.40;;;7.40;;
10540;SDS011;5318;50.844;4.272;2023-06-10T09:15:51;7.50;;;7.50;;
10540;SDS011;5318;50.844;4.272;2023-06-10T09:18:17;7.03;;;7.03;;
10540;SDS011;5318;50.844;4.272;2023-06-10T09:20:43;6.97;;;6.97;;
10540;SDS011;5318;50.844;4.272;2023-06-10T09:23:09;7.23;;;7.23;;
10540;SDS011;5318;50.844;4.272;2023-06-10T09:25:35;7.53;;;7.53;;
10540;SDS011;5318;50.844;4.272;2023-06-10T09:28:03;7.07;;;7.07;;
10540;SDS011;5318;50.844;4.272;2023-06-10T09:30:30;6.90;;;6.90;;
10540;SDS011;5318;50.844;4.272;2023-06-10T09:32:57;6.90;;;6.90;;
10540;SDS011;5318;50.844;4.272;2023-06-10T09:35:24;7.03;;;7.03;;
10540;SDS011;5318;50.844;4.272;2023-06-10T09:37:51;6.53;;;6.53;;
10540;SDS011;5318;50.844;4.272;2023-06-10T09:40:18;6.80;;;6.80;;
10540;SDS011;5318;50.844;4.272;2023-06-10T09:42:43;7.13;;;7.13;;
10540;SDS011;5318;50.844;4.272;2023-06-10T09:45:09;6.90;;;6.90;;
10540;SDS011;5318;50.844;4.272;2023-06-10T09:47:35;6.73;;;6.73;;
10540;SDS011;5318;50.844;4.272;2023-06-10T09:50:01;6.70;;;6.70;;
10540;SDS011;5318;50.844;4.272;2023-06-10T09:52:27;6.90;;;6.90;;
10540;SDS011;5318;50.844;4.272;2023-06-10T09:54:58;6.37;;;6.37;;
10540;SDS011;5318;50.844;4.272;2023-06-10T09:57:25;6.10;;;6.10;;
10540;SDS011;5318;50.844;4.272;2023-06-10T09:59:54;6.80;;;6.80;;
10540;SDS011;5318;50.844;4.272;2023-06-10T10:02:20;5.97;;;5.97;;
10540;SDS011;5318;50.844;4.272;2023-06-10T10:04:46;6.57;;;6.57;;
10540;SDS011;5318;50.844;4.272;2023-06-10T10:07:12;6.63;;;6.63;;
10540;SDS011;5318;50.844;4.272;2023-06-10T10:09:38;6.37;;;6.37;;
10540;SDS011;5318;50.844;4.272;2023-06-10T10:12:09;6.27;;;6.27;;
10540;SDS011;5318;50.844;4.272;2023-06-10T10:14:37;6.67;;;6.67;;
10540;SDS011;5318;50.844;4.272;2023-06-10T10:17:07;6.50;;;6.50;;
10540;SDS011;5318;50.844;4.272;2023-06-10T10:19:58;6.33;;;6.33;;
10540;SDS011;5318;50.844;4.272;2023-06-10T10:22:37;7.20;;;7.20;;
10540;SDS011;5318;50.844;4.272;2023-06-10T10:25:11;6.13;;;6.13;;
10540;SDS011;5318;50.844;4.272;2023-06-10T10:30:16;6.13;;;6.13;;
10540;SDS011;5318;50.844;4.272;2023-06-10T10:32:54;6.67;;;6.67;;
10540;SDS011;5318;50.844;4.272;2023-06-10T10:35:30;6.83;;;6.83;;
10540;SDS011;5318;50.844;4.272;2023-06-10T10:37:57;6.87;;;6.87;;
10540;SDS011;5318;50.844;4.272;2023-06-10T10:40:24;7.53;;;7.53;;
10540;SDS011;5318;50.844;4.272;2023-06-10T10:42:55;6.93;;;6.93;;
10540;SDS011;5318;50.844;4.272;2023-06-10T10:45:23;6.50;;;6.50;;
10540;SDS011;5318;50.844;4.272;2023-06-10T10:47:52;6.67;;;6.67;;
10540;SDS011;5318;50.844;4.272;2023-06-10T10:50:19;7.00;;;7.00;;
10540;SDS011;5318;50.844;4.272;2023-06-10T10:52:52;6.93;;;6.93;;
10540;SDS011;5318;50.844;4.272;2023-06-10T10:55:18;7.23;;;7.23;;
10540;SDS011;5318;50.844;4.272;2023-06-10T10:57:44;6.67;;;6.67;;
10540;SDS011;5318;50.844;4.272;2023-06-10T11:00:24;6.53;;;6.53;;
10540;SDS011;5318;50.844;4.272;2023-06-10T11:03:15;6.83;;;6.83;;
10540;SDS011;5318;50.844;4.272;2023-06-10T11:05:45;6.83;;;6.83;;
10540;SDS011;5318;50.844;4.272;2023-06-10T11:08:16;7.07;;;7.07;;
10540;SDS011;5318;50.844;4.272;2023-06-10T11:11:27;7.37;;;7.37;;
10540;SDS011;5318;50.844;4.272;2023-06-10T11:13:58;6.87;;;6.87;;
10540;SDS011;5318;50.844;4.272;2023-06-10T11:16:27;6.77;;;6.77;;
10540;SDS011;5318;50.844;4.272;2023-06-10T11:18:54;7.07;;;7.07;;
10540;SDS011;5318;50.844;4.272;2023-06-10T11:21:20;6.47;;;6.47;;
10540;SDS011;5318;50.844;4.272;2023-06-10T11:23:48;7.03;;;7.03;;
10540;SDS011;5318;50.844;4.272;2023-06-10T11:31:25;7.03;;;7.03;;
10540;SDS011;5318;50.844;4.272;2023-06-10T11:33:56;6.67;;;6.67;;
10540;SDS011;5318;50.844;4.272;2023-06-10T11:36:26;7.17;;;7.17;;
10540;SDS011;5318;50.844;4.272;2023-06-10T11:38:54;6.50;;;6.50;;
10540;SDS011;5318;50.844;4.272;2023-06-10T11:41:25;6.30;;;6.30;;
10540;SDS011;5318;50.844;4.272;2023-06-10T11:43:52;6.07;;;6.07;;
10540;SDS011;5318;50.844;4.272;2023-06-10T11:46:20;6.50;;;6.50;;
10540;SDS011;5318;50.844;4.272;2023-06-10T11:48:50;6.70;;;6.70;;
10540;SDS011;5318;50.844;4.272;2023-06-10T11:51:16;7.33;;;7.33;;
10540;SDS011;5318;50.844;4.272;2023-06-10T11:53:45;10.97;;;10.87;;
10540;SDS011;5318;50.844;4.272;2023-06-10T11:56:12;12.93;;;12.83;;
10540;SDS011;5318;50.844;4.272;2023-06-10T11:58:38;17.23;;;16.93;;
10540;SDS011;5318;50.844;4.272;2023-06-10T12:01:08;25.67;;;25.27;;
10540;SDS011;5318;50.844;4.272;2023-06-10T12:03:37;28.50;;;28.00;;
10540;SDS011;5318;50.844;4.272;2023-06-10T12:06:04;34.80;;;34.20;;
10540;SDS011;5318;50.844;4.272;2023-06-10T12:08:30;35.77;;;35.17;;
10540;SDS011;5318;50.844;4.272;2023-06-10T12:10:57;35.90;;;35.30;;
10540;SDS011;5318;50.844;4.272;2023-06-10T12:13:23;37.83;;;37.23;;
10540;SDS011;5318;50.844;4.272;2023-06-10T12:15:52;37.33;;;36.73;;
10540;SDS011;5318;50.844;4.272;2023-06-10T12:18:27;33.63;;;33.13;;
10540;SDS011;5318;50.844;4.272;2023-06-10T12:20:53;36.20;;;35.60;;
10540;SDS011;5318;50.844;4.272;2023-06-10T12:23:18;36.13;;;35.63;;
10540;SDS011;5318;50.844;4.272;2023-06-10T12:25:51;33.00;;;32.43;;
10540;SDS011;5318;50.844;4.272;2023-06-10T12:28:21;33.80;;;33.30;;
10540;SDS011;5318;50.844;4.272;2023-06-10T12:30:48;32.20;;;31.67;;
10540;SDS011;5318;50.844;4.272;2023-06-10T12:33:20;28.70;;;28.20;;
10540;SDS011;5318;50.844;4.272;2023-06-10T19:16:32;6.77;;;6.77;;
10540;SDS011;5318;50.844;4.272;2023-06-10T19:19:01;7.50;;;7.50;;
10540;SDS011;5318;50.844;4.272;2023-06-10T19:21:27;7.00;;;7.00;;
10540;SDS011;5318;50.844;4.272;2023-06-10T19:23:52;7.80;;;7.80;;
10540;SDS011;5318;50.844;4.272;2023-06-10T19:26:19;7.57;;;7.57;;
10540;SDS011;5318;50.844;4.272;2023-06-10T19:28:44;8.00;;;8.00;;
10540;SDS011;5318;50.844;4.272;2023-06-10T19:31:10;8.50;;;8.50;;
10540;SDS011;5318;50.844;4.272;2023-06-10T19:33:36;7.80;;;7.80;;
10540;SDS011;5318;50.844;4.272;2023-06-10T19:36:01;8.00;;;8.00;;
10540;SDS011;5318;50.844;4.272;2023-06-10T19:38:27;8.27;;;8.27;;
10540;SDS011;5318;50.844;4.272;2023-06-10T19:40:53;8.40;;;8.40;;
10540;SDS011;5318;50.844;4.272;2023-06-10T19:43:19;7.90;;;7.90;;
10540;SDS011;5318;50.844;4.272;2023-06-10T19:45:44;8.20;;;8.20;;
10540;SDS011;5318;50.844;4.272;2023-06-10T19:48:10;8.17;;;8.17;;
10540;SDS011;5318;50.844;4.272;2023-06-10T19:50:36;7.70;;;7.70;;
10540;SDS011;5318;50.844;4.272;2023-06-10T19:53:01;8.10;;;8.10;;
10540;SDS011;5318;50.844;4.272;2023-06-10T19:55:27;8.53;;;8.53;;
10540;SDS011;5318;50.844;4.272;2023-06-10T19:57:52;8.13;;;8.13;;
10540;SDS011;5318;50.844;4.272;2023-06-10T20:00:20;8.63;;;8.63;;
10540;SDS011;5318;50.844;4.272;2023-06-10T20:02:46;8.07;;;8.07;;
10540;SDS011;5318;50.844;4.272;2023-06-10T20:05:12;8.40;;;8.40;;
10540;SDS011;5318;50.844;4.272;2023-06-10T20:07:38;8.33;;;8.33;;
10540;SDS011;5318;50.844;4.272;2023-06-10T20:10:07;7.87;;;7.87;;
10540;SDS011;5318;50.844;4.272;2023-06-10T20:12:33;8.27;;;8.27;;
10540;SDS011;5318;50.844;4.272;2023-06-10T20:14:58;8.93;;;8.93;;
10540;SDS011;5318;50.844;4.272;2023-06-10T20:17:24;8.33;;;8.33;;
10540;SDS011;5318;50.844;4.272;2023-06-10T20:19:50;8.37;;;8.37;;
10540;SDS011;5318;50.844;4.272;2023-06-10T20:22:20;9.10;;;9.10;;
10540;SDS011;5318;50.844;4.272;2023-06-10T20:24:46;8.20;;;8.20;;
10540;SDS011;5318;50.844;4.272;2023-06-10T20:27:13;8.47;;;8.47;;
10540;SDS011;5318;50.844;4.272;2023-06-10T20:29:39;8.07;;;8.07;;
10540;SDS011;5318;50.844;4.272;2023-06-10T20:32:05;7.67;;;7.67;;
10540;SDS011;5318;50.844;4.272;2023-06-10T20:34:31;8.03;;;8.03;;
10540;SDS011;5318;50.844;4.272;2023-06-10T20:36:56;8.70;;;8.70;;
10540;SDS011;5318;50.844;4.272;2023-06-10T20:39:22;7.70;;;7.70;;
10540;SDS011;5318;50.844;4.272;2023-06-10T20:41:49;7.57;;;7.57;;
10540;SDS011;5318;50.844;4.272;2023-06-10T20:44:15;7.20;;;7.20;;
10540;SDS011;5318;50.844;4.272;2023-06-10T20:46:40;7.43;;;7.43;;
10540;SDS011;5318;50.844;4.272;2023-06-10T20:49:06;8.13;;;8.13;;
10540;SDS011;5318;50.844;4.272;2023-06-10T20:51:32;7.90;;;7.90;;
10540;SDS011;5318;50.844;4.272;2023-06-10T20:53:59;7.53;;;7.53;;
10540;SDS011;5318;50.844;4.272;2023-06-10T20:56:25;8.07;;;8.07;;
10540;SDS011;5318;50.844;4.272;2023-06-10T20:58:51;7.90;;;7.90;;
10540;SDS011;5318;50.844;4.272;2023-06-10T21:01:17;7.63;;;7.63;;
10540;SDS011;5318;50.844;4.272;2023-06-10T21:03:42;8.43;;;8.43;;
10540;SDS011;5318;50.844;4.272;2023-06-10T21:06:11;7.97;;;7.97;;
10540;SDS011;5318;50.844;4.272;2023-06-10T21:08:37;7.30;;;7.30;;
10540;SDS011;5318;50.844;4.272;2023-06-10T21:11:04;7.93;;;7.93;;
10540;SDS011;5318;50.844;4.272;2023-06-10T21:13:29;7.53;;;7.53;;
10540;SDS011;5318;50.844;4.272;2023-06-10T21:15:55;7.57;;;7.57;;
10540;SDS011;5318;50.844;4.272;2023-06-10T21:18:21;7.47;;;7.47;;
10540;SDS011;5318;50.844;4.272;2023-06-10T21:20:46;8.20;;;8.20;;
10540;SDS011;5318;50.844;4.272;2023-06-10T21:23:12;7.70;;;7.70;;
10540;SDS011;5318;50.844;4.272;2023-06-10T21:25:37;6.93;;;6.93;;
10540;SDS011;5318;50.844;4.272;2023-06-10T21:28:04;7.43;;;7.43;;
10540;SDS011;5318;50.844;4.272;2023-06-10T21:30:29;7.13;;;7.13;;
10540;SDS011;5318;50.844;4.272;2023-06-10T21:32:55;7.20;;;7.20;;
10540;SDS011;5318;50.844;4.272;2023-06-10T21:35:21;7.03;;;7.03;;
10540;SDS011;5318;50.844;4.272;2023-06-10T21:37:48;7.13;;;7.13;;
